createdAt,value
2019-03-26T00:00:27.325Z,7.83
2019-03-26T00:02:57.313Z,6.80
2019-03-26T00:05:27.708Z,8.20
2019-03-26T00:07:58.169Z,7.93
2019-03-26T00:10:28.601Z,8.00
2019-03-26T00:12:59.009Z,5.83
2019-03-26T00:15:28.523Z,8.27
2019-03-26T00:17:58.909Z,6.03
2019-03-26T00:20:29.361Z,7.00
2019-03-26T00:22:59.818Z,7.90
2019-03-26T00:25:30.270Z,6.60
2019-03-26T00:28:00.744Z,9.83
2019-03-26T00:30:31.180Z,8.77
2019-03-26T00:33:01.725Z,8.37
2019-03-26T00:35:32.164Z,7.57
2019-03-26T00:38:02.983Z,8.97
2019-03-26T00:40:32.572Z,8.93
2019-03-26T00:43:02.098Z,6.90
2019-03-26T00:45:32.469Z,9.97
2019-03-26T00:48:02.949Z,7.87
2019-03-26T00:50:32.541Z,14.87
2019-03-26T00:53:03.063Z,9.07
2019-03-26T00:55:33.539Z,7.60
2019-03-26T00:58:03.144Z,9.00
2019-03-26T01:00:51.489Z,7.40
2019-03-26T01:03:21.999Z,10.77
2019-03-26T01:05:52.372Z,10.03
2019-03-26T01:08:21.904Z,12.17
2019-03-26T01:10:52.258Z,11.87
2019-03-26T01:13:22.841Z,10.43
2019-03-26T01:15:53.274Z,9.73
2019-03-26T01:18:23.671Z,9.83
2019-03-26T01:20:54.119Z,9.47
2019-03-26T01:23:24.644Z,12.33
2019-03-26T01:25:55.081Z,8.33
2019-03-26T01:28:24.664Z,11.00
2019-03-26T01:30:55.047Z,10.30
2019-03-26T01:33:25.760Z,11.33
2019-03-26T01:35:56.197Z,11.53
2019-03-26T01:38:26.633Z,11.60
2019-03-26T01:40:57.013Z,8.17
2019-03-26T01:43:27.493Z,13.00
2019-03-26T01:45:57.981Z,9.50
2019-03-26T01:48:27.570Z,13.83
2019-03-26T01:50:57.859Z,10.87
2019-03-26T01:53:28.329Z,9.27
2019-03-26T01:55:57.902Z,11.03
2019-03-26T01:58:28.204Z,13.20
2019-03-26T02:00:58.609Z,10.67
2019-03-26T02:03:29.080Z,11.13
2019-03-26T02:05:59.533Z,11.73
2019-03-26T02:08:30.008Z,11.47
2019-03-26T02:11:00.465Z,15.63
2019-03-26T02:13:30.094Z,10.30
2019-03-26T02:16:00.574Z,9.90
2019-03-26T02:18:31.035Z,11.17
2019-03-26T02:21:01.494Z,13.27
2019-03-26T02:23:32.042Z,11.30
2019-03-26T02:26:01.794Z,12.93
2019-03-26T02:28:32.782Z,11.87
2019-03-26T02:31:03.203Z,10.47
2019-03-26T02:33:33.720Z,10.47
2019-03-26T02:36:04.232Z,12.23
2019-03-26T02:38:34.736Z,10.73
2019-03-26T02:41:05.773Z,11.43
2019-03-26T02:43:36.303Z,16.57
2019-03-26T02:46:06.743Z,10.03
2019-03-26T02:48:37.172Z,11.27
2019-03-26T02:51:07.600Z,15.67
2019-03-26T02:53:38.042Z,11.63
2019-03-26T02:56:07.639Z,13.87
2019-03-26T02:58:38.217Z,11.30
2019-03-26T03:01:08.670Z,13.37
2019-03-26T03:03:39.185Z,10.20
2019-03-26T03:06:08.736Z,11.50
2019-03-26T03:08:39.030Z,11.23
2019-03-26T03:11:09.474Z,13.47
2019-03-26T03:13:39.985Z,11.17
2019-03-26T03:16:10.638Z,12.23
2019-03-26T03:18:41.349Z,12.40
2019-03-26T03:21:11.986Z,10.73
2019-03-26T03:23:42.527Z,10.07
2019-03-26T03:26:12.157Z,10.37
2019-03-26T03:28:42.603Z,16.10
2019-03-26T03:31:12.207Z,9.80
2019-03-26T03:33:41.749Z,12.63
2019-03-26T03:36:12.313Z,11.93
2019-03-26T03:38:41.977Z,9.87
2019-03-26T03:41:12.329Z,10.80
2019-03-26T03:43:42.807Z,10.60
2019-03-26T03:46:12.897Z,8.60
2019-03-26T03:48:43.903Z,11.00
2019-03-26T03:51:14.896Z,12.20
2019-03-26T03:53:45.293Z,11.97
2019-03-26T03:56:17.764Z,11.53
2019-03-26T03:58:49.425Z,13.27
2019-03-26T04:01:18.955Z,11.70
2019-03-26T04:03:49.373Z,14.07
2019-03-26T04:06:19.852Z,11.23
2019-03-26T04:08:50.275Z,13.40
2019-03-26T04:11:19.842Z,14.97
2019-03-26T04:13:49.349Z,11.57
2019-03-26T04:16:18.847Z,12.40
2019-03-26T04:18:49.226Z,11.07
2019-03-26T04:21:18.797Z,10.43
2019-03-26T04:23:49.104Z,13.10
2019-03-26T04:26:19.544Z,13.50
2019-03-26T04:28:50.040Z,11.53
2019-03-26T04:31:20.489Z,11.73
2019-03-26T04:33:50.978Z,12.07
2019-03-26T04:36:26.108Z,10.20
2019-03-26T04:38:53.492Z,11.07
2019-03-26T04:41:23.984Z,12.63
2019-03-26T04:43:54.468Z,13.73
2019-03-26T04:46:24.901Z,11.67
2019-03-26T04:48:54.485Z,11.77
2019-03-26T04:51:23.941Z,11.47
2019-03-26T04:53:54.302Z,11.53
2019-03-26T04:56:24.750Z,11.43
2019-03-26T04:58:55.235Z,9.53
2019-03-26T05:01:25.718Z,10.33
2019-03-26T05:03:56.224Z,13.87
2019-03-26T05:06:37.384Z,11.23
2019-03-26T05:08:58.761Z,14.50
2019-03-26T05:11:29.212Z,9.63
2019-03-26T05:13:59.604Z,9.93
2019-03-26T05:16:29.119Z,11.33
2019-03-26T05:18:59.509Z,10.97
2019-03-26T05:21:29.949Z,12.70
2019-03-26T05:23:59.532Z,9.43
2019-03-26T05:26:29.821Z,11.73
2019-03-26T05:29:00.213Z,10.70
2019-03-26T05:31:29.799Z,10.13
2019-03-26T05:34:00.386Z,10.73
2019-03-26T05:36:30.259Z,9.27
2019-03-26T05:39:00.732Z,9.73
2019-03-26T05:41:31.118Z,9.63
2019-03-26T05:44:01.594Z,9.33
2019-03-26T05:46:32.028Z,10.67
2019-03-26T05:49:01.562Z,13.20
2019-03-26T05:51:31.987Z,10.27
2019-03-26T05:54:02.446Z,13.60
2019-03-26T05:56:32.799Z,10.20
2019-03-26T05:59:03.352Z,8.47
2019-03-26T06:01:32.900Z,9.73
2019-03-26T06:04:04.819Z,9.93
2019-03-26T06:06:35.314Z,7.37
2019-03-26T06:09:05.555Z,9.53
2019-03-26T06:11:35.027Z,9.83
2019-03-26T06:14:04.571Z,7.57
2019-03-26T06:16:38.638Z,8.10
2019-03-26T06:19:06.055Z,8.17
2019-03-26T06:21:36.531Z,8.23
2019-03-26T06:24:06.133Z,9.83
2019-03-26T06:26:36.471Z,12.17
2019-03-26T06:29:07.034Z,9.50
2019-03-26T06:31:37.424Z,10.37
2019-03-26T06:34:07.082Z,12.93
2019-03-26T06:36:37.475Z,14.07
2019-03-26T06:39:09.465Z,12.77
2019-03-26T06:41:40.042Z,14.03
2019-03-26T06:44:09.669Z,11.60
2019-03-26T06:46:39.101Z,11.93
2019-03-26T06:49:09.478Z,12.33
2019-03-26T06:51:39.049Z,9.40
2019-03-26T06:54:09.439Z,11.60
2019-03-26T06:56:40.901Z,11.20
2019-03-26T06:59:11.272Z,12.23
2019-03-26T07:01:41.745Z,11.90
2019-03-26T07:04:12.249Z,14.33
2019-03-26T07:06:42.918Z,14.80
2019-03-26T07:09:13.372Z,16.07
2019-03-26T07:11:42.964Z,14.90
2019-03-26T07:14:13.304Z,14.83
2019-03-26T07:16:43.722Z,14.37
2019-03-26T07:19:14.159Z,13.73
2019-03-26T07:21:49.759Z,10.57
2019-03-26T07:24:16.016Z,11.37
2019-03-26T07:26:45.444Z,12.00
2019-03-26T07:29:15.733Z,11.87
2019-03-26T07:31:46.122Z,8.40
2019-03-26T07:34:15.758Z,10.47
2019-03-26T07:36:46.110Z,8.60
2019-03-26T07:39:15.776Z,7.73
2019-03-26T07:41:46.149Z,8.20
2019-03-26T07:44:16.875Z,8.50
2019-03-26T07:46:47.327Z,7.20
2019-03-26T07:49:16.927Z,9.00
2019-03-26T07:51:47.329Z,7.23
2019-03-26T07:54:17.724Z,9.83
2019-03-26T07:56:47.293Z,7.20
2019-03-26T07:59:17.685Z,7.50
2019-03-26T08:01:48.120Z,8.47
2019-03-26T08:04:17.758Z,11.00
2019-03-26T08:06:48.174Z,10.53
2019-03-26T08:09:17.776Z,8.17
2019-03-26T08:11:47.206Z,9.27
2019-03-26T08:14:17.872Z,12.47
2019-03-26T08:16:48.282Z,7.83
2019-03-26T08:19:18.760Z,6.43
2019-03-26T08:21:49.230Z,9.67
2019-03-26T08:24:19.717Z,7.70
2019-03-26T08:26:52.090Z,7.37
2019-03-26T08:29:22.455Z,6.77
2019-03-26T08:31:53.200Z,6.30
2019-03-26T08:34:23.549Z,6.73
2019-03-26T08:36:53.948Z,8.53
2019-03-26T08:39:24.402Z,7.97
2019-03-26T08:41:54.785Z,8.27
2019-03-26T08:44:25.237Z,10.77
2019-03-26T08:46:54.856Z,8.23
2019-03-26T08:49:30.405Z,7.17
2019-03-26T08:51:56.318Z,8.40
2019-03-26T08:54:26.862Z,6.37
2019-03-26T08:56:57.228Z,6.10
2019-03-26T08:59:27.591Z,6.00
2019-03-26T09:01:58.027Z,5.97
2019-03-26T09:04:28.507Z,5.27
2019-03-26T09:06:58.303Z,6.03
2019-03-26T09:09:27.769Z,7.03
2019-03-26T09:11:58.073Z,4.90
2019-03-26T09:14:27.635Z,6.97
2019-03-26T09:16:58.017Z,6.47
2019-03-26T09:19:27.653Z,5.67
2019-03-26T09:21:58.067Z,18.73
2019-03-26T09:24:28.502Z,7.63
2019-03-26T09:26:58.265Z,4.63
2019-03-26T09:29:28.632Z,4.23
2019-03-26T09:31:58.260Z,5.30
2019-03-26T09:34:27.712Z,5.07
2019-03-26T09:36:58.077Z,6.53
2019-03-26T09:39:28.841Z,6.33
2019-03-26T09:41:58.437Z,4.80
2019-03-26T09:44:28.793Z,6.60
2019-03-26T09:46:59.255Z,6.40
2019-03-26T09:49:29.714Z,5.13
2019-03-26T09:52:00.416Z,4.90
2019-03-26T09:54:30.884Z,6.33
2019-03-26T09:57:01.379Z,4.97
2019-03-26T09:59:31.204Z,4.87
2019-03-26T10:02:01.597Z,5.57
2019-03-26T10:04:32.022Z,4.10
2019-03-26T10:07:02.514Z,4.13
2019-03-26T10:09:33.001Z,7.77
2019-03-26T10:12:02.593Z,4.83
2019-03-26T10:14:31.991Z,5.57
2019-03-26T10:17:02.394Z,5.90
2019-03-26T10:19:32.833Z,4.27
2019-03-26T10:22:02.467Z,8.03
2019-03-26T10:24:32.821Z,6.90
2019-03-26T10:27:03.341Z,3.83
2019-03-26T10:29:32.916Z,4.93
2019-03-26T10:32:02.345Z,6.27
2019-03-26T10:34:32.001Z,9.23
2019-03-26T10:37:02.110Z,4.97
2019-03-26T10:39:32.462Z,5.20
2019-03-26T10:42:02.096Z,5.67
2019-03-26T10:44:31.567Z,5.33
2019-03-26T10:47:02.044Z,6.63
2019-03-26T10:49:31.663Z,7.10
2019-03-26T10:52:01.234Z,5.33
2019-03-26T10:54:30.775Z,4.20
2019-03-26T10:57:01.153Z,7.87
2019-03-26T10:59:31.585Z,2.83
2019-03-26T11:02:01.974Z,4.63
2019-03-26T11:04:32.419Z,3.97
2019-03-26T11:07:02.048Z,3.97
2019-03-26T11:09:31.557Z,3.57
2019-03-26T11:12:01.067Z,3.67
2019-03-26T11:14:31.941Z,2.97
2019-03-26T11:17:02.468Z,3.40
2019-03-26T11:19:32.921Z,2.93
2019-03-26T11:22:02.493Z,3.67
2019-03-26T11:24:31.931Z,3.50
2019-03-26T11:27:01.454Z,5.70
2019-03-26T11:29:30.976Z,4.37
2019-03-26T11:32:01.316Z,4.70
2019-03-26T11:34:30.902Z,3.00
2019-03-26T11:37:01.376Z,3.03
2019-03-26T11:39:32.885Z,4.57
2019-03-26T11:42:03.077Z,3.00
2019-03-26T11:44:32.668Z,2.50
2019-03-26T11:47:02.173Z,4.83
2019-03-26T11:49:32.565Z,4.53
2019-03-26T11:52:03.097Z,4.50
2019-03-26T11:54:32.714Z,5.33
2019-03-26T11:57:03.253Z,4.57
2019-03-26T11:59:32.853Z,3.87
2019-03-26T12:02:02.368Z,4.10
2019-03-26T12:04:33.050Z,5.97
2019-03-26T12:07:04.906Z,3.23
2019-03-26T12:09:45.483Z,3.50
2019-03-26T12:12:07.580Z,4.63
2019-03-26T12:14:38.018Z,3.97
2019-03-26T12:17:08.516Z,3.50
2019-03-26T12:19:38.165Z,3.53
2019-03-26T12:22:07.674Z,2.90
2019-03-26T12:24:38.092Z,3.97
2019-03-26T12:27:07.661Z,6.47
2019-03-26T12:29:38.057Z,3.87
2019-03-26T12:32:07.655Z,4.57
2019-03-26T12:34:37.174Z,6.87
2019-03-26T12:37:06.653Z,6.07
2019-03-26T12:39:36.948Z,4.27
2019-03-26T12:42:06.545Z,6.07
2019-03-26T12:44:36.061Z,4.00
2019-03-26T12:47:06.410Z,4.30
2019-03-26T12:49:36.031Z,4.07
2019-03-26T12:52:06.375Z,4.67
2019-03-26T12:54:35.957Z,2.60
2019-03-26T12:57:06.236Z,4.93
2019-03-26T12:59:36.695Z,2.73
2019-03-26T13:02:07.284Z,4.07
2019-03-26T13:04:39.589Z,4.17
2019-03-26T13:07:09.113Z,3.70
2019-03-26T13:09:41.666Z,4.03
2019-03-26T13:12:10.503Z,4.17
2019-03-26T13:14:40.141Z,4.03
2019-03-26T13:17:10.554Z,4.77
2019-03-26T13:19:40.958Z,2.93
2019-03-26T13:22:11.437Z,3.00
2019-03-26T13:24:41.913Z,3.63
2019-03-26T13:27:12.360Z,2.67
2019-03-26T13:29:42.039Z,3.87
2019-03-26T13:32:13.132Z,2.70
2019-03-26T13:34:43.737Z,3.80
2019-03-26T13:37:14.239Z,2.63
2019-03-26T13:39:44.714Z,2.50
2019-03-26T13:42:15.113Z,2.97
2019-03-26T13:44:45.564Z,3.07
2019-03-26T13:47:15.980Z,2.70
2019-03-26T13:49:46.464Z,3.30
2019-03-26T13:52:15.969Z,2.83
2019-03-26T13:54:46.321Z,3.10
2019-03-26T13:57:16.783Z,5.17
2019-03-26T13:59:49.073Z,2.60
2019-03-26T14:02:19.305Z,4.00
2019-03-26T14:04:48.919Z,4.20
2019-03-26T14:07:19.264Z,3.37
2019-03-26T14:09:48.853Z,3.83
2019-03-26T14:12:18.299Z,2.93
2019-03-26T14:14:47.753Z,3.63
2019-03-26T14:17:17.276Z,3.80
2019-03-26T14:19:46.858Z,4.40
2019-03-26T14:22:16.423Z,3.30
2019-03-26T14:24:46.775Z,5.03
2019-03-26T14:27:17.304Z,4.50
2019-03-26T14:29:47.754Z,3.33
2019-03-26T14:32:17.361Z,4.33
2019-03-26T14:34:51.485Z,3.10
2019-03-26T14:37:19.887Z,5.27
2019-03-26T14:39:49.542Z,4.80
2019-03-26T14:42:19.910Z,4.73
2019-03-26T14:44:50.311Z,4.13
2019-03-26T14:47:20.791Z,5.23
2019-03-26T14:49:51.184Z,5.77
2019-03-26T14:52:21.676Z,3.30
2019-03-26T14:54:51.233Z,3.73
2019-03-26T14:57:21.576Z,5.37
2019-03-26T14:59:51.181Z,3.57
2019-03-26T15:02:21.592Z,5.00
2019-03-26T15:04:52.031Z,3.73
2019-03-26T15:07:22.517Z,6.17
2019-03-26T15:09:53.464Z,4.63
2019-03-26T15:12:23.123Z,2.50
2019-03-26T15:14:52.658Z,3.83
2019-03-26T15:17:23.300Z,3.43
2019-03-26T15:19:55.065Z,2.97
2019-03-26T15:22:24.920Z,2.90
2019-03-26T15:24:55.346Z,3.43
2019-03-26T15:27:24.964Z,4.30
2019-03-26T15:29:55.331Z,4.27
2019-03-26T15:32:25.785Z,3.63
2019-03-26T15:34:55.390Z,2.83
2019-03-26T15:37:25.808Z,3.57
2019-03-26T15:39:56.269Z,4.83
2019-03-26T15:42:26.745Z,4.73
2019-03-26T15:44:57.153Z,4.50
2019-03-26T15:47:26.759Z,2.83
2019-03-26T15:49:56.306Z,4.73
2019-03-26T15:52:26.714Z,4.47
2019-03-26T15:54:56.282Z,7.27
2019-03-26T15:57:26.649Z,5.07
2019-03-26T15:59:57.009Z,2.63
2019-03-26T16:02:26.867Z,5.23
2019-03-26T16:04:57.212Z,4.03
2019-03-26T16:07:27.733Z,4.80
2019-03-26T16:09:58.185Z,5.43
2019-03-26T16:12:40.566Z,3.30
2019-03-26T16:15:00.698Z,4.77
2019-03-26T16:17:31.212Z,5.13
2019-03-26T16:20:00.852Z,4.70
2019-03-26T16:22:30.380Z,4.27
2019-03-26T16:24:59.862Z,7.00
2019-03-26T16:27:30.281Z,4.13
2019-03-26T16:29:59.885Z,6.20
2019-03-26T16:32:30.263Z,4.70
2019-03-26T16:34:59.891Z,4.87
2019-03-26T16:37:29.419Z,7.87
2019-03-26T16:39:59.992Z,4.17
2019-03-26T16:42:29.628Z,4.27
2019-03-26T16:44:59.893Z,4.17
2019-03-26T16:47:30.363Z,3.90
2019-03-26T16:50:00.741Z,5.60
2019-03-26T16:52:31.239Z,4.47
2019-03-26T16:55:01.697Z,7.13
2019-03-26T16:57:31.216Z,4.37
2019-03-26T17:00:00.662Z,3.73
2019-03-26T17:02:31.043Z,5.77
2019-03-26T17:05:01.428Z,9.70
2019-03-26T17:07:31.867Z,6.47
2019-03-26T17:10:02.319Z,5.90
2019-03-26T17:12:32.796Z,6.53
2019-03-26T17:15:03.272Z,5.83
2019-03-26T17:17:33.823Z,10.27
2019-03-26T17:20:04.638Z,6.10
2019-03-26T17:22:35.089Z,6.30
2019-03-26T17:25:06.833Z,5.43
2019-03-26T17:27:37.209Z,8.30
2019-03-26T17:30:08.185Z,5.40
2019-03-26T17:32:38.694Z,4.63
2019-03-26T17:35:08.532Z,6.87
2019-03-26T17:37:38.074Z,4.73
2019-03-26T17:40:08.836Z,4.97
2019-03-26T17:42:39.337Z,7.17
2019-03-26T17:45:09.145Z,4.80
2019-03-26T17:47:38.636Z,7.93
2019-03-26T17:50:09.244Z,5.20
2019-03-26T17:52:39.716Z,7.83
2019-03-26T17:55:10.405Z,4.73
2019-03-26T17:57:39.964Z,6.23
2019-03-26T18:00:13.289Z,7.30
2019-03-26T18:02:43.815Z,5.63
2019-03-26T18:05:39.230Z,6.10
2019-03-26T18:08:08.841Z,5.87
2019-03-26T18:10:39.217Z,7.03
2019-03-26T18:13:08.750Z,7.90
2019-03-26T18:15:39.173Z,7.10
2019-03-26T18:18:08.798Z,6.97
2019-03-26T18:20:39.244Z,7.63
2019-03-26T18:23:09.754Z,8.07
2019-03-26T18:25:40.295Z,7.97
2019-03-26T18:28:10.783Z,9.40
2019-03-26T18:30:40.390Z,7.77
2019-03-26T18:33:10.729Z,7.80
2019-03-26T18:35:40.259Z,6.93
2019-03-26T18:38:10.659Z,6.20
2019-03-26T18:40:41.234Z,7.07
2019-03-26T18:43:11.702Z,9.03
2019-03-26T18:45:42.205Z,7.57
2019-03-26T18:48:11.745Z,6.00
2019-03-26T18:50:41.193Z,4.73
2019-03-26T18:53:11.566Z,6.60
2019-03-26T18:55:41.276Z,6.03
2019-03-26T18:58:11.648Z,5.57
2019-03-26T19:00:42.113Z,8.43
2019-03-26T19:03:12.599Z,6.73
2019-03-26T19:05:42.445Z,9.33
2019-03-26T19:08:12.786Z,5.90
2019-03-26T19:10:44.460Z,6.87
2019-03-26T19:13:19.696Z,11.67
2019-03-26T19:15:46.120Z,8.90
2019-03-26T19:18:16.500Z,5.93
2019-03-26T19:20:46.981Z,12.30
2019-03-26T19:23:17.444Z,10.03
2019-03-26T19:25:47.921Z,9.67
2019-03-26T19:28:17.512Z,9.60
2019-03-26T19:30:47.086Z,10.50
2019-03-26T19:33:17.470Z,9.63
2019-03-26T19:35:47.119Z,6.90
2019-03-26T19:38:19.750Z,7.27
2019-03-26T19:40:49.217Z,10.17
2019-03-26T19:43:19.487Z,10.33
2019-03-26T19:45:50.073Z,9.07
2019-03-26T19:48:20.512Z,9.47
2019-03-26T19:50:50.981Z,8.70
2019-03-26T19:53:20.519Z,8.60
2019-03-26T19:55:49.977Z,8.73
2019-03-26T19:58:20.304Z,8.70
2019-03-26T20:00:49.886Z,7.20
2019-03-26T20:03:21.407Z,7.73
2019-03-26T20:05:50.927Z,13.13
2019-03-26T20:08:20.449Z,12.17
2019-03-26T20:10:49.937Z,9.17
2019-03-26T20:13:24.676Z,8.00
2019-03-26T20:15:51.465Z,7.93
2019-03-26T20:18:21.059Z,9.20
2019-03-26T20:20:50.532Z,8.53
2019-03-26T20:23:20.087Z,7.17
2019-03-26T20:25:49.686Z,7.17
2019-03-26T20:28:20.072Z,7.40
2019-03-26T20:30:49.605Z,6.93
2019-03-26T20:33:20.224Z,8.50
2019-03-26T20:35:49.708Z,9.73
2019-03-26T20:38:20.088Z,8.33
2019-03-26T20:40:50.526Z,8.93
2019-03-26T20:43:21.010Z,6.23
2019-03-26T20:45:51.481Z,7.17
2019-03-26T20:48:21.974Z,6.50
2019-03-26T20:50:52.349Z,5.87
2019-03-26T20:53:21.946Z,7.20
2019-03-26T20:55:54.607Z,7.00
2019-03-26T20:58:25.325Z,8.37
2019-03-26T21:00:55.756Z,9.63
2019-03-26T21:03:26.227Z,7.87
2019-03-26T21:05:56.682Z,6.07
2019-03-26T21:08:26.335Z,7.03
2019-03-26T21:10:55.822Z,7.43
2019-03-26T21:13:25.339Z,6.50
2019-03-26T21:15:57.453Z,8.63
2019-03-26T21:18:26.888Z,10.20
2019-03-26T21:20:58.820Z,6.00
2019-03-26T21:23:28.397Z,8.87
2019-03-26T21:25:58.779Z,7.47
2019-03-26T21:28:29.275Z,8.73
2019-03-26T21:30:58.853Z,10.90
2019-03-26T21:33:29.299Z,7.27
2019-03-26T21:35:59.785Z,6.20
2019-03-26T21:38:29.568Z,8.60
2019-03-26T21:40:59.062Z,7.13
2019-03-26T21:43:28.563Z,6.53
2019-03-26T21:45:58.938Z,8.07
2019-03-26T21:48:29.493Z,6.33
2019-03-26T21:50:59.944Z,8.73
2019-03-26T21:53:30.455Z,7.00
2019-03-26T21:56:06.363Z,7.07
2019-03-26T21:58:33.151Z,5.97
2019-03-26T22:01:03.599Z,10.80
2019-03-26T22:03:34.217Z,6.57
2019-03-26T22:06:05.828Z,8.80
2019-03-26T22:08:36.294Z,5.70
2019-03-26T22:11:05.943Z,6.60
2019-03-26T22:13:35.559Z,7.43
2019-03-26T22:16:06.074Z,8.17
2019-03-26T22:18:36.537Z,7.47
2019-03-26T22:21:06.086Z,8.67
2019-03-26T22:23:35.574Z,9.20
2019-03-26T22:26:05.097Z,10.40
2019-03-26T22:28:35.565Z,9.33
2019-03-26T22:31:06.036Z,10.20
2019-03-26T22:33:36.505Z,6.67
2019-03-26T22:36:06.985Z,10.03
2019-03-26T22:38:37.420Z,8.60
2019-03-26T22:41:07.888Z,9.57
2019-03-26T22:43:38.307Z,11.83
2019-03-26T22:46:07.903Z,11.27
2019-03-26T22:48:38.245Z,10.23
2019-03-26T22:51:07.865Z,10.43
2019-03-26T22:53:38.849Z,10.67
2019-03-26T22:56:08.377Z,10.47
2019-03-26T22:58:37.818Z,10.73
2019-03-26T23:01:08.586Z,12.97
2019-03-26T23:03:38.084Z,12.97
2019-03-26T23:06:07.588Z,11.10
2019-03-26T23:08:37.993Z,14.90
2019-03-26T23:11:08.490Z,11.30
2019-03-26T23:13:38.048Z,13.40
2019-03-26T23:16:08.010Z,9.23
2019-03-26T23:18:38.384Z,10.97
2019-03-26T23:21:09.065Z,10.23
2019-03-26T23:23:38.562Z,10.17
2019-03-26T23:26:09.029Z,9.63
2019-03-26T23:28:38.839Z,12.07
2019-03-26T23:31:08.380Z,13.20
2019-03-26T23:33:37.858Z,11.47
2019-03-26T23:36:07.361Z,13.17
2019-03-26T23:38:37.825Z,12.87
2019-03-26T23:41:08.283Z,13.23
2019-03-26T23:43:38.734Z,11.80
2019-03-26T23:46:09.205Z,11.13
2019-03-26T23:48:39.631Z,11.80
2019-03-26T23:51:10.172Z,12.43
2019-03-26T23:53:40.636Z,14.07
2019-03-26T23:56:11.148Z,12.93
2019-03-26T23:58:40.760Z,12.23
